sensor_id;sensor_type;location;lat;lon;timestamp;temperature;humidity
22319;DHT22;11327;52.334;9.506;2023-10-19T00:00:05;8.00;99.90
22319;DHT22;11327;52.334;9.506;2023-10-19T00:03:28;8.00;99.90
22319;DHT22;11327;52.334;9.506;2023-10-19T00:06:48;8.00;99.90
22319;DHT22;11327;52.334;9.506;2023-10-19T00:10:09;8.00;99.90
22319;DHT22;11327;52.334;9.506;2023-10-19T00:13:30;7.90;99.90
22319;DHT22;11327;52.334;9.506;2023-10-19T00:16:51;7.90;99.90
22319;DHT22;11327;52.334;9.506;2023-10-19T00:20:14;7.90;99.90
22319;DHT22;11327;52.334;9.506;2023-10-19T00:23:55;7.90;99.90
22319;DHT22;11327;52.334;9.506;2023-10-19T00:27:17;7.80;99.90
22319;DHT22;11327;52.334;9.506;2023-10-19T00:30:39;7.80;99.90
22319;DHT22;11327;52.334;9.506;2023-10-19T00:34:02;7.80;99.90
22319;DHT22;11327;52.334;9.506;2023-10-19T00:37:23;7.90;99.90
22319;DHT22;11327;52.334;9.506;2023-10-19T00:40:51;7.90;99.90
22319;DHT22;11327;52.334;9.506;2023-10-19T00:44:14;7.80;99.90
22319;DHT22;11327;52.334;9.506;2023-10-19T00:47:45;7.80;99.90
22319;DHT22;11327;52.334;9.506;2023-10-19T00:51:07;7.80;99.90
22319;DHT22;11327;52.334;9.506;2023-10-19T00:54:33;7.80;99.90
22319;DHT22;11327;52.334;9.506;2023-10-19T00:57:59;7.90;99.90
22319;DHT22;11327;52.334;9.506;2023-10-19T01:01:24;7.90;99.90
22319;DHT22;11327;52.334;9.506;2023-10-19T01:04:49;7.90;99.90
22319;DHT22;11327;52.334;9.506;2023-10-19T01:08:16;7.80;99.90
22319;DHT22;11327;52.334;9.506;2023-10-19T01:11:47;7.80;99.90
22319;DHT22;11327;52.334;9.506;2023-10-19T01:15:16;7.80;99.90
22319;DHT22;11327;52.334;9.506;2023-10-19T01:18:37;7.80;99.90
22319;DHT22;11327;52.334;9.506;2023-10-19T01:22:00;7.70;99.90
22319;DHT22;11327;52.334;9.506;2023-10-19T01:25:23;7.70;99.90
22319;DHT22;11327;52.334;9.506;2023-10-19T01:28:48;7.70;99.90
22319;DHT22;11327;52.334;9.506;2023-10-19T01:32:11;7.60;99.90
22319;DHT22;11327;52.334;9.506;2023-10-19T01:35:34;7.50;99.90
22319;DHT22;11327;52.334;9.506;2023-10-19T01:39:13;7.60;99.90
22319;DHT22;11327;52.334;9.506;2023-10-19T01:42:34;7.60;99.90
22319;DHT22;11327;52.334;9.506;2023-10-19T01:45:55;7.50;99.90
22319;DHT22;11327;52.334;9.506;2023-10-19T01:49:16;7.50;99.90
22319;DHT22;11327;52.334;9.506;2023-10-19T01:52:49;7.50;99.90
22319;DHT22;11327;52.334;9.506;2023-10-19T01:56:11;7.60;99.90
22319;DHT22;11327;52.334;9.506;2023-10-19T01:59:33;7.50;99.90
22319;DHT22;11327;52.334;9.506;2023-10-19T02:02:54;7.60;99.90
22319;DHT22;11327;52.334;9.506;2023-10-19T02:06:16;7.60;99.90
22319;DHT22;11327;52.334;9.506;2023-10-19T02:09:37;7.60;99.90
22319;DHT22;11327;52.334;9.506;2023-10-19T02:13:00;7.60;99.90
22319;DHT22;11327;52.334;9.506;2023-10-19T02:16:21;7.60;99.90
22319;DHT22;11327;52.334;9.506;2023-10-19T02:19:42;7.60;99.90
22319;DHT22;11327;52.334;9.506;2023-10-19T02:23:04;7.70;99.90
22319;DHT22;11327;52.334;9.506;2023-10-19T02:26:25;7.60;99.90
22319;DHT22;11327;52.334;9.506;2023-10-19T02:29:49;7.50;99.90
22319;DHT22;11327;52.334;9.506;2023-10-19T02:33:11;7.60;99.90
22319;DHT22;11327;52.334;9.506;2023-10-19T02:36:33;7.50;99.90
22319;DHT22;11327;52.334;9.506;2023-10-19T02:39:54;7.60;99.90
22319;DHT22;11327;52.334;9.506;2023-10-19T02:43:15;7.60;99.90
22319;DHT22;11327;52.334;9.506;2023-10-19T02:46:36;7.50;99.90
22319;DHT22;11327;52.334;9.506;2023-10-19T02:50:02;7.50;99.90
22319;DHT22;11327;52.334;9.506;2023-10-19T02:53:25;7.60;99.90
22319;DHT22;11327;52.334;9.506;2023-10-19T02:56:48;7.50;99.90
22319;DHT22;11327;52.334;9.506;2023-10-19T03:00:11;7.50;99.90
22319;DHT22;11327;52.334;9.506;2023-10-19T03:03:34;7.50;99.90
22319;DHT22;11327;52.334;9.506;2023-10-19T03:06:54;7.60;99.90
22319;DHT22;11327;52.334;9.506;2023-10-19T03:10:18;7.50;99.90
22319;DHT22;11327;52.334;9.506;2023-10-19T03:13:46;7.50;99.90
22319;DHT22;11327;52.334;9.506;2023-10-19T03:17:09;7.50;99.90
22319;DHT22;11327;52.334;9.506;2023-10-19T03:20:30;7.50;99.90
22319;DHT22;11327;52.334;9.506;2023-10-19T03:23:54;7.60;99.90
22319;DHT22;11327;52.334;9.506;2023-10-19T03:27:17;7.50;99.90
22319;DHT22;11327;52.334;9.506;2023-10-19T03:30:43;7.50;99.90
22319;DHT22;11327;52.334;9.506;2023-10-19T03:34:04;7.40;99.90
22319;DHT22;11327;52.334;9.506;2023-10-19T03:37:27;7.50;99.90
22319;DHT22;11327;52.334;9.506;2023-10-19T03:40:52;7.50;99.90
22319;DHT22;11327;52.334;9.506;2023-10-19T03:44:15;7.50;99.90
22319;DHT22;11327;52.334;9.506;2023-10-19T03:47:52;7.40;99.90
22319;DHT22;11327;52.334;9.506;2023-10-19T03:51:15;7.40;99.90
22319;DHT22;11327;52.334;9.506;2023-10-19T03:54:38;7.60;99.90
22319;DHT22;11327;52.334;9.506;2023-10-19T03:58:02;7.60;99.90
22319;DHT22;11327;52.334;9.506;2023-10-19T04:01:24;7.50;99.90
22319;DHT22;11327;52.334;9.506;2023-10-19T04:04:44;7.50;99.90
22319;DHT22;11327;52.334;9.506;2023-10-19T04:08:07;7.50;99.90
22319;DHT22;11327;52.334;9.506;2023-10-19T04:11:29;7.50;99.90
22319;DHT22;11327;52.334;9.506;2023-10-19T04:14:52;7.50;99.90
22319;DHT22;11327;52.334;9.506;2023-10-19T04:18:13;7.50;99.90
22319;DHT22;11327;52.334;9.506;2023-10-19T04:21:34;7.40;99.90
22319;DHT22;11327;52.334;9.506;2023-10-19T04:24:57;7.40;99.90
22319;DHT22;11327;52.334;9.506;2023-10-19T04:28:19;7.50;99.90
22319;DHT22;11327;52.334;9.506;2023-10-19T04:31:42;7.50;99.90
22319;DHT22;11327;52.334;9.506;2023-10-19T04:35:14;7.60;99.90
22319;DHT22;11327;52.334;9.506;2023-10-19T04:38:37;7.60;99.90
22319;DHT22;11327;52.334;9.506;2023-10-19T04:41:58;7.60;99.90
22319;DHT22;11327;52.334;9.506;2023-10-19T04:45:19;7.60;99.90
22319;DHT22;11327;52.334;9.506;2023-10-19T04:48:40;7.60;99.90
22319;DHT22;11327;52.334;9.506;2023-10-19T04:52:02;7.60;99.90
22319;DHT22;11327;52.334;9.506;2023-10-19T04:55:23;7.50;99.90
22319;DHT22;11327;52.334;9.506;2023-10-19T04:58:44;7.60;99.90
22319;DHT22;11327;52.334;9.506;2023-10-19T05:02:05;7.60;99.90
22319;DHT22;11327;52.334;9.506;2023-10-19T05:05:26;7.50;99.90
22319;DHT22;11327;52.334;9.506;2023-10-19T05:08:47;7.60;99.90
22319;DHT22;11327;52.334;9.506;2023-10-19T05:12:08;7.50;99.90
22319;DHT22;11327;52.334;9.506;2023-10-19T05:15:30;7.60;99.90
22319;DHT22;11327;52.334;9.506;2023-10-19T05:18:50;7.60;99.90
22319;DHT22;11327;52.334;9.506;2023-10-19T05:22:11;7.60;99.90
22319;DHT22;11327;52.334;9.506;2023-10-19T05:25:32;7.60;99.90
22319;DHT22;11327;52.334;9.506;2023-10-19T05:28:52;7.70;99.90
22319;DHT22;11327;52.334;9.506;2023-10-19T05:32:14;7.60;99.90
22319;DHT22;11327;52.334;9.506;2023-10-19T05:35:35;7.50;99.90
22319;DHT22;11327;52.334;9.506;2023-10-19T05:38:58;7.60;99.90
22319;DHT22;11327;52.334;9.506;2023-10-19T05:42:18;7.60;99.90
22319;DHT22;11327;52.334;9.506;2023-10-19T05:45:39;7.60;99.90
22319;DHT22;11327;52.334;9.506;2023-10-19T05:49:00;7.60;99.90
22319;DHT22;11327;52.334;9.506;2023-10-19T05:52:23;7.60;99.90
22319;DHT22;11327;52.334;9.506;2023-10-19T05:55:46;7.50;99.90
22319;DHT22;11327;52.334;9.506;2023-10-19T05:59:07;7.60;99.90
22319;DHT22;11327;52.334;9.506;2023-10-19T06:02:27;7.70;99.90
22319;DHT22;11327;52.334;9.506;2023-10-19T06:05:48;7.60;99.90
22319;DHT22;11327;52.334;9.506;2023-10-19T06:09:09;7.70;99.90
22319;DHT22;11327;52.334;9.506;2023-10-19T06:12:31;7.70;99.90
22319;DHT22;11327;52.334;9.506;2023-10-19T06:15:52;7.80;99.90
22319;DHT22;11327;52.334;9.506;2023-10-19T06:19:13;7.80;99.90
22319;DHT22;11327;52.334;9.506;2023-10-19T06:22:35;7.70;99.90
22319;DHT22;11327;52.334;9.506;2023-10-19T06:25:55;7.70;99.90
22319;DHT22;11327;52.334;9.506;2023-10-19T06:29:16;7.60;99.90
22319;DHT22;11327;52.334;9.506;2023-10-19T06:32:37;7.60;99.90
22319;DHT22;11327;52.334;9.506;2023-10-19T06:35:57;7.70;99.90
22319;DHT22;11327;52.334;9.506;2023-10-19T06:39:19;7.70;99.90
22319;DHT22;11327;52.334;9.506;2023-10-19T06:42:42;7.70;99.90
22319;DHT22;11327;52.334;9.506;2023-10-19T06:46:02;7.70;99.90
22319;DHT22;11327;52.334;9.506;2023-10-19T06:49:24;7.70;99.90
22319;DHT22;11327;52.334;9.506;2023-10-19T06:52:46;7.70;99.90
22319;DHT22;11327;52.334;9.506;2023-10-19T06:56:08;7.70;99.90
22319;DHT22;11327;52.334;9.506;2023-10-19T06:59:29;7.70;99.90
22319;DHT22;11327;52.334;9.506;2023-10-19T07:02:50;7.70;99.90
22319;DHT22;11327;52.334;9.506;2023-10-19T07:06:11;7.70;99.90
22319;DHT22;11327;52.334;9.506;2023-10-19T07:09:34;7.70;99.90
22319;DHT22;11327;52.334;9.506;2023-10-19T07:12:56;7.70;99.90
22319;DHT22;11327;52.334;9.506;2023-10-19T07:16:16;7.80;99.90
22319;DHT22;11327;52.334;9.506;2023-10-19T07:19:43;7.80;99.90
22319;DHT22;11327;52.334;9.506;2023-10-19T07:23:04;7.80;99.90
22319;DHT22;11327;52.334;9.506;2023-10-19T07:26:41;7.90;99.90
22319;DHT22;11327;52.334;9.506;2023-10-19T07:30:08;7.90;99.90
22319;DHT22;11327;52.334;9.506;2023-10-19T07:33:29;7.80;99.90
22319;DHT22;11327;52.334;9.506;2023-10-19T07:36:51;7.80;99.90
22319;DHT22;11327;52.334;9.506;2023-10-19T07:40:13;7.80;99.90
22319;DHT22;11327;52.334;9.506;2023-10-19T07:43:34;7.80;99.90
22319;DHT22;11327;52.334;9.506;2023-10-19T07:46:55;7.80;99.90
22319;DHT22;11327;52.334;9.506;2023-10-19T07:50:16;7.90;99.90
22319;DHT22;11327;52.334;9.506;2023-10-19T07:53:37;7.90;99.90
22319;DHT22;11327;52.334;9.506;2023-10-19T07:56:57;7.90;99.90
22319;DHT22;11327;52.334;9.506;2023-10-19T08:00:20;7.90;99.90
22319;DHT22;11327;52.334;9.506;2023-10-19T08:03:41;8.00;99.90
22319;DHT22;11327;52.334;9.506;2023-10-19T08:07:02;8.00;99.90
22319;DHT22;11327;52.334;9.506;2023-10-19T08:10:22;8.00;99.90
22319;DHT22;11327;52.334;9.506;2023-10-19T08:13:43;8.00;99.90
22319;DHT22;11327;52.334;9.506;2023-10-19T08:17:04;8.00;99.90
22319;DHT22;11327;52.334;9.506;2023-10-19T08:20:25;8.00;99.90
22319;DHT22;11327;52.334;9.506;2023-10-19T08:23:52;8.00;99.90
22319;DHT22;11327;52.334;9.506;2023-10-19T08:27:14;8.10;99.90
22319;DHT22;11327;52.334;9.506;2023-10-19T08:30:34;8.10;99.90
22319;DHT22;11327;52.334;9.506;2023-10-19T08:33:55;8.10;99.90
22319;DHT22;11327;52.334;9.506;2023-10-19T08:37:17;8.10;99.90
22319;DHT22;11327;52.334;9.506;2023-10-19T08:40:39;8.10;99.90
22319;DHT22;11327;52.334;9.506;2023-10-19T08:44:02;8.20;99.90
22319;DHT22;11327;52.334;9.506;2023-10-19T08:47:23;8.20;99.90
22319;DHT22;11327;52.334;9.506;2023-10-19T08:50:46;8.20;99.90
22319;DHT22;11327;52.334;9.506;2023-10-19T08:54:08;8.20;99.90
22319;DHT22;11327;52.334;9.506;2023-10-19T08:57:31;8.30;99.90
22319;DHT22;11327;52.334;9.506;2023-10-19T09:00:52;8.30;99.90
22319;DHT22;11327;52.334;9.506;2023-10-19T09:04:15;8.30;99.90
22319;DHT22;11327;52.334;9.506;2023-10-19T09:07:36;8.30;99.90
22319;DHT22;11327;52.334;9.506;2023-10-19T09:11:01;8.30;99.90
22319;DHT22;11327;52.334;9.506;2023-10-19T09:14:34;8.30;99.90
22319;DHT22;11327;52.334;9.506;2023-10-19T09:17:56;8.40;99.90
22319;DHT22;11327;52.334;9.506;2023-10-19T09:21:18;8.50;99.90
22319;DHT22;11327;52.334;9.506;2023-10-19T09:24:46;8.50;99.90
22319;DHT22;11327;52.334;9.506;2023-10-19T09:28:06;8.50;99.90
22319;DHT22;11327;52.334;9.506;2023-10-19T09:31:27;8.60;99.90
22319;DHT22;11327;52.334;9.506;2023-10-19T09:34:48;8.70;99.90
22319;DHT22;11327;52.334;9.506;2023-10-19T09:38:09;8.80;99.90
22319;DHT22;11327;52.334;9.506;2023-10-19T09:41:31;8.90;99.90
22319;DHT22;11327;52.334;9.506;2023-10-19T09:44:57;8.90;99.90
22319;DHT22;11327;52.334;9.506;2023-10-19T09:48:20;9.00;99.90
22319;DHT22;11327;52.334;9.506;2023-10-19T09:51:42;9.00;99.90
22319;DHT22;11327;52.334;9.506;2023-10-19T09:55:19;9.10;99.90
22319;DHT22;11327;52.334;9.506;2023-10-19T09:58:45;9.00;99.90
22319;DHT22;11327;52.334;9.506;2023-10-19T10:09:09;9.10;99.90
22319;DHT22;11327;52.334;9.506;2023-10-19T10:12:32;9.10;99.90
22319;DHT22;11327;52.334;9.506;2023-10-19T10:15:56;9.10;99.90
22319;DHT22;11327;52.334;9.506;2023-10-19T10:19:20;9.00;99.90
22319;DHT22;11327;52.334;9.506;2023-10-19T10:22:41;9.10;99.90
22319;DHT22;11327;52.334;9.506;2023-10-19T10:26:02;9.10;99.90
22319;DHT22;11327;52.334;9.506;2023-10-19T10:29:24;9.10;99.90
22319;DHT22;11327;52.334;9.506;2023-10-19T10:32:50;9.10;99.90
22319;DHT22;11327;52.334;9.506;2023-10-19T10:36:15;9.10;99.90
22319;DHT22;11327;52.334;9.506;2023-10-19T10:39:39;9.20;99.90
22319;DHT22;11327;52.334;9.506;2023-10-19T10:43:07;9.20;99.90
22319;DHT22;11327;52.334;9.506;2023-10-19T10:46:28;9.30;99.90
22319;DHT22;11327;52.334;9.506;2023-10-19T10:49:56;9.30;99.90
22319;DHT22;11327;52.334;9.506;2023-10-19T10:53:17;9.40;99.90
22319;DHT22;11327;52.334;9.506;2023-10-19T10:56:41;9.40;99.90
22319;DHT22;11327;52.334;9.506;2023-10-19T11:00:04;9.50;99.90
22319;DHT22;11327;52.334;9.506;2023-10-19T11:03:27;9.40;99.90
22319;DHT22;11327;52.334;9.506;2023-10-19T11:06:51;9.50;99.90
22319;DHT22;11327;52.334;9.506;2023-10-19T11:10:12;9.50;99.90
22319;DHT22;11327;52.334;9.506;2023-10-19T11:13:33;9.50;99.90
22319;DHT22;11327;52.334;9.506;2023-10-19T11:17:11;9.50;99.90
22319;DHT22;11327;52.334;9.506;2023-10-19T11:20:22;9.50;99.90
22319;DHT22;11327;52.334;9.506;2023-10-19T11:23:45;9.60;99.90
22319;DHT22;11327;52.334;9.506;2023-10-19T11:27:07;9.60;99.90
22319;DHT22;11327;52.334;9.506;2023-10-19T11:30:32;9.60;99.90
22319;DHT22;11327;52.334;9.506;2023-10-19T11:33:54;9.60;99.90
22319;DHT22;11327;52.334;9.506;2023-10-19T11:37:21;9.60;99.90
22319;DHT22;11327;52.334;9.506;2023-10-19T11:40:42;9.60;99.90
22319;DHT22;11327;52.334;9.506;2023-10-19T11:44:03;9.70;99.90
22319;DHT22;11327;52.334;9.506;2023-10-19T11:47:24;9.70;99.90
22319;DHT22;11327;52.334;9.506;2023-10-19T11:50:45;9.60;99.90
22319;DHT22;11327;52.334;9.506;2023-10-19T11:54:05;9.60;99.90
22319;DHT22;11327;52.334;9.506;2023-10-19T11:57:26;9.60;99.90
22319;DHT22;11327;52.334;9.506;2023-10-19T12:00:47;9.50;99.90
22319;DHT22;11327;52.334;9.506;2023-10-19T12:04:08;9.50;99.90
22319;DHT22;11327;52.334;9.506;2023-10-19T12:07:30;9.60;99.90
22319;DHT22;11327;52.334;9.506;2023-10-19T12:10:52;9.70;99.90
22319;DHT22;11327;52.334;9.506;2023-10-19T12:14:13;9.70;99.90
22319;DHT22;11327;52.334;9.506;2023-10-19T12:17:35;9.80;99.90
22319;DHT22;11327;52.334;9.506;2023-10-19T12:20:56;9.90;99.90
22319;DHT22;11327;52.334;9.506;2023-10-19T12:24:21;9.90;99.90
22319;DHT22;11327;52.334;9.506;2023-10-19T12:27:42;9.90;99.90
22319;DHT22;11327;52.334;9.506;2023-10-19T12:31:02;9.90;99.90
22319;DHT22;11327;52.334;9.506;2023-10-19T12:34:23;9.90;99.90
22319;DHT22;11327;52.334;9.506;2023-10-19T12:37:44;10.00;99.90
22319;DHT22;11327;52.334;9.506;2023-10-19T12:41:10;10.10;99.90
22319;DHT22;11327;52.334;9.506;2023-10-19T12:44:30;10.10;99.90
22319;DHT22;11327;52.334;9.506;2023-10-19T12:47:53;10.10;99.90
22319;DHT22;11327;52.334;9.506;2023-10-19T12:51:14;10.00;99.90
22319;DHT22;11327;52.334;9.506;2023-10-19T12:54:37;9.90;99.90
22319;DHT22;11327;52.334;9.506;2023-10-19T12:57:58;9.90;99.90
22319;DHT22;11327;52.334;9.506;2023-10-19T13:01:21;9.90;99.90
22319;DHT22;11327;52.334;9.506;2023-10-19T13:04:41;10.00;99.90
22319;DHT22;11327;52.334;9.506;2023-10-19T13:08:05;9.90;99.90
22319;DHT22;11327;52.334;9.506;2023-10-19T13:11:26;10.00;99.90
22319;DHT22;11327;52.334;9.506;2023-10-19T13:14:47;10.00;99.90
22319;DHT22;11327;52.334;9.506;2023-10-19T13:18:09;9.90;99.90
22319;DHT22;11327;52.334;9.506;2023-10-19T13:21:30;9.90;99.90
22319;DHT22;11327;52.334;9.506;2023-10-19T13:24:52;9.80;99.90
22319;DHT22;11327;52.334;9.506;2023-10-19T13:28:14;9.90;99.90
22319;DHT22;11327;52.334;9.506;2023-10-19T13:31:35;9.90;99.90
22319;DHT22;11327;52.334;9.506;2023-10-19T13:34:55;10.00;99.90
22319;DHT22;11327;52.334;9.506;2023-10-19T13:38:17;10.00;99.90
22319;DHT22;11327;52.334;9.506;2023-10-19T13:41:40;10.00;99.90
22319;DHT22;11327;52.334;9.506;2023-10-19T13:45:00;10.00;99.90
22319;DHT22;11327;52.334;9.506;2023-10-19T13:48:21;10.00;99.90
22319;DHT22;11327;52.334;9.506;2023-10-19T13:51:43;10.00;99.90
22319;DHT22;11327;52.334;9.506;2023-10-19T13:55:04;10.00;99.90
22319;DHT22;11327;52.334;9.506;2023-10-19T13:58:25;10.00;99.90
22319;DHT22;11327;52.334;9.506;2023-10-19T14:01:46;10.00;99.90
22319;DHT22;11327;52.334;9.506;2023-10-19T14:05:07;9.90;99.90
22319;DHT22;11327;52.334;9.506;2023-10-19T14:08:27;9.90;99.90
22319;DHT22;11327;52.334;9.506;2023-10-19T14:11:48;9.90;99.90
22319;DHT22;11327;52.334;9.506;2023-10-19T14:15:12;9.90;99.90
22319;DHT22;11327;52.334;9.506;2023-10-19T14:18:34;9.90;99.90
22319;DHT22;11327;52.334;9.506;2023-10-19T14:21:55;9.90;99.90
22319;DHT22;11327;52.334;9.506;2023-10-19T14:25:16;10.00;99.90
22319;DHT22;11327;52.334;9.506;2023-10-19T14:28:39;10.00;99.90
22319;DHT22;11327;52.334;9.506;2023-10-19T14:32:01;10.00;99.90
22319;DHT22;11327;52.334;9.506;2023-10-19T14:35:24;10.10;99.90
22319;DHT22;11327;52.334;9.506;2023-10-19T14:38:45;10.10;99.90
22319;DHT22;11327;52.334;9.506;2023-10-19T14:42:06;10.10;99.90
22319;DHT22;11327;52.334;9.506;2023-10-19T14:45:29;10.20;99.90
22319;DHT22;11327;52.334;9.506;2023-10-19T14:48:49;10.10;99.90
22319;DHT22;11327;52.334;9.506;2023-10-19T14:52:10;10.10;99.90
22319;DHT22;11327;52.334;9.506;2023-10-19T14:55:31;10.10;99.90
22319;DHT22;11327;52.334;9.506;2023-10-19T14:58:52;9.90;99.90
22319;DHT22;11327;52.334;9.506;2023-10-19T15:02:14;9.90;99.90
22319;DHT22;11327;52.334;9.506;2023-10-19T15:05:36;9.90;99.90
22319;DHT22;11327;52.334;9.506;2023-10-19T15:08:57;10.00;99.90
22319;DHT22;11327;52.334;9.506;2023-10-19T15:12:18;9.90;99.90
22319;DHT22;11327;52.334;9.506;2023-10-19T15:15:40;9.90;99.90
22319;DHT22;11327;52.334;9.506;2023-10-19T15:19:00;9.90;99.90
22319;DHT22;11327;52.334;9.506;2023-10-19T15:22:21;9.80;99.90
22319;DHT22;11327;52.334;9.506;2023-10-19T15:25:43;9.80;99.90
22319;DHT22;11327;52.334;9.506;2023-10-19T15:29:04;9.80;99.90
22319;DHT22;11327;52.334;9.506;2023-10-19T15:32:25;9.80;99.90
22319;DHT22;11327;52.334;9.506;2023-10-19T15:35:49;9.80;99.90
22319;DHT22;11327;52.334;9.506;2023-10-19T15:39:09;9.70;99.90
22319;DHT22;11327;52.334;9.506;2023-10-19T15:42:31;9.70;99.90
22319;DHT22;11327;52.334;9.506;2023-10-19T15:45:59;9.60;99.90
22319;DHT22;11327;52.334;9.506;2023-10-19T15:49:23;9.60;99.90
22319;DHT22;11327;52.334;9.506;2023-10-19T15:52:44;9.60;99.90
22319;DHT22;11327;52.334;9.506;2023-10-19T15:56:05;9.60;99.90
22319;DHT22;11327;52.334;9.506;2023-10-19T15:59:26;9.50;99.90
22319;DHT22;11327;52.334;9.506;2023-10-19T16:02:47;9.50;99.90
22319;DHT22;11327;52.334;9.506;2023-10-19T16:06:08;9.40;99.90
22319;DHT22;11327;52.334;9.506;2023-10-19T16:09:30;9.40;99.90
22319;DHT22;11327;52.334;9.506;2023-10-19T16:12:51;9.40;99.90
22319;DHT22;11327;52.334;9.506;2023-10-19T16:16:11;9.40;99.90
22319;DHT22;11327;52.334;9.506;2023-10-19T16:19:33;9.40;99.90
22319;DHT22;11327;52.334;9.506;2023-10-19T16:22:53;9.40;99.90
22319;DHT22;11327;52.334;9.506;2023-10-19T16:26:15;9.30;99.90
22319;DHT22;11327;52.334;9.506;2023-10-19T16:29:36;9.30;99.90
22319;DHT22;11327;52.334;9.506;2023-10-19T16:32:58;9.30;99.90
22319;DHT22;11327;52.334;9.506;2023-10-19T16:36:19;9.30;99.90
22319;DHT22;11327;52.334;9.506;2023-10-19T16:39:39;9.30;99.90
22319;DHT22;11327;52.334;9.506;2023-10-19T16:43:00;9.20;99.90
22319;DHT22;11327;52.334;9.506;2023-10-19T16:46:22;9.20;99.90
22319;DHT22;11327;52.334;9.506;2023-10-19T16:49:43;9.20;99.90
22319;DHT22;11327;52.334;9.506;2023-10-19T16:53:04;9.20;99.90
22319;DHT22;11327;52.334;9.506;2023-10-19T16:56:25;9.20;99.90
22319;DHT22;11327;52.334;9.506;2023-10-19T16:59:45;9.10;99.90
22319;DHT22;11327;52.334;9.506;2023-10-19T17:03:06;9.10;99.90
22319;DHT22;11327;52.334;9.506;2023-10-19T17:06:27;9.10;99.90
22319;DHT22;11327;52.334;9.506;2023-10-19T17:09:48;9.00;99.90
22319;DHT22;11327;52.334;9.506;2023-10-19T17:13:08;9.00;99.90
22319;DHT22;11327;52.334;9.506;2023-10-19T17:16:30;9.00;99.90
22319;DHT22;11327;52.334;9.506;2023-10-19T17:19:51;8.90;99.90
22319;DHT22;11327;52.334;9.506;2023-10-19T17:23:12;8.90;99.90
22319;DHT22;11327;52.334;9.506;2023-10-19T17:26:33;8.90;99.90
22319;DHT22;11327;52.334;9.506;2023-10-19T17:29:54;8.80;99.90
22319;DHT22;11327;52.334;9.506;2023-10-19T17:33:15;8.80;99.90
22319;DHT22;11327;52.334;9.506;2023-10-19T17:36:35;8.90;99.90
22319;DHT22;11327;52.334;9.506;2023-10-19T17:39:56;8.80;99.90
22319;DHT22;11327;52.334;9.506;2023-10-19T17:43:17;8.80;99.90
22319;DHT22;11327;52.334;9.506;2023-10-19T17:46:37;8.80;99.90
22319;DHT22;11327;52.334;9.506;2023-10-19T17:49:58;8.80;99.90
22319;DHT22;11327;52.334;9.506;2023-10-19T17:53:19;8.80;99.90
22319;DHT22;11327;52.334;9.506;2023-10-19T17:56:40;8.80;99.90
22319;DHT22;11327;52.334;9.506;2023-10-19T18:00:00;8.70;99.90
22319;DHT22;11327;52.334;9.506;2023-10-19T18:03:21;8.70;99.90
22319;DHT22;11327;52.334;9.506;2023-10-19T18:06:43;8.70;99.90
22319;DHT22;11327;52.334;9.506;2023-10-19T18:10:07;8.70;99.90
22319;DHT22;11327;52.334;9.506;2023-10-19T18:13:28;8.70;99.90
22319;DHT22;11327;52.334;9.506;2023-10-19T18:16:51;8.70;99.90
22319;DHT22;11327;52.334;9.506;2023-10-19T18:20:12;8.60;99.90
22319;DHT22;11327;52.334;9.506;2023-10-19T18:23:35;8.60;99.90
22319;DHT22;11327;52.334;9.506;2023-10-19T18:26:56;8.60;99.90
22319;DHT22;11327;52.334;9.506;2023-10-19T18:30:17;8.60;99.90
22319;DHT22;11327;52.334;9.506;2023-10-19T18:33:37;8.60;99.90
22319;DHT22;11327;52.334;9.506;2023-10-19T18:36:58;8.60;99.90
22319;DHT22;11327;52.334;9.506;2023-10-19T18:40:19;8.60;99.90
22319;DHT22;11327;52.334;9.506;2023-10-19T18:43:41;8.60;99.90
22319;DHT22;11327;52.334;9.506;2023-10-19T18:47:03;8.60;99.90
22319;DHT22;11327;52.334;9.506;2023-10-19T18:50:23;8.60;99.90
22319;DHT22;11327;52.334;9.506;2023-10-19T18:53:44;8.60;99.90
22319;DHT22;11327;52.334;9.506;2023-10-19T18:57:05;8.60;99.90
22319;DHT22;11327;52.334;9.506;2023-10-19T19:00:26;8.60;99.90
22319;DHT22;11327;52.334;9.506;2023-10-19T19:03:47;8.60;99.90
22319;DHT22;11327;52.334;9.506;2023-10-19T19:07:09;8.50;99.90
22319;DHT22;11327;52.334;9.506;2023-10-19T19:10:29;8.50;99.90
22319;DHT22;11327;52.334;9.506;2023-10-19T19:13:52;8.60;99.90
22319;DHT22;11327;52.334;9.506;2023-10-19T19:17:13;8.60;99.90
22319;DHT22;11327;52.334;9.506;2023-10-19T19:20:33;8.60;99.90
22319;DHT22;11327;52.334;9.506;2023-10-19T19:23:54;8.60;99.90
22319;DHT22;11327;52.334;9.506;2023-10-19T19:27:15;8.60;99.90
22319;DHT22;11327;52.334;9.506;2023-10-19T19:30:36;8.60;99.90
22319;DHT22;11327;52.334;9.506;2023-10-19T19:33:57;8.60;99.90
22319;DHT22;11327;52.334;9.506;2023-10-19T19:37:18;8.60;99.90
22319;DHT22;11327;52.334;9.506;2023-10-19T19:40:39;8.60;99.90
22319;DHT22;11327;52.334;9.506;2023-10-19T19:44:00;8.60;99.90
22319;DHT22;11327;52.334;9.506;2023-10-19T19:47:21;8.50;99.90
22319;DHT22;11327;52.334;9.506;2023-10-19T19:50:42;8.50;99.90
22319;DHT22;11327;52.334;9.506;2023-10-19T19:54:02;8.50;99.90
22319;DHT22;11327;52.334;9.506;2023-10-19T19:57:23;8.50;99.90
22319;DHT22;11327;52.334;9.506;2023-10-19T20:00:44;8.50;99.90
22319;DHT22;11327;52.334;9.506;2023-10-19T20:04:04;8.50;99.90
22319;DHT22;11327;52.334;9.506;2023-10-19T20:07:25;8.40;99.90
22319;DHT22;11327;52.334;9.506;2023-10-19T20:10:48;8.50;99.90
22319;DHT22;11327;52.334;9.506;2023-10-19T20:14:09;8.40;99.90
22319;DHT22;11327;52.334;9.506;2023-10-19T20:17:30;8.40;99.90
22319;DHT22;11327;52.334;9.506;2023-10-19T20:20:54;8.50;99.90
22319;DHT22;11327;52.334;9.506;2023-10-19T20:24:15;8.40;99.90
22319;DHT22;11327;52.334;9.506;2023-10-19T20:27:36;8.40;99.90
22319;DHT22;11327;52.334;9.506;2023-10-19T20:30:58;8.50;99.90
22319;DHT22;11327;52.334;9.506;2023-10-19T20:34:19;8.50;99.90
22319;DHT22;11327;52.334;9.506;2023-10-19T20:37:41;8.50;99.90
22319;DHT22;11327;52.334;9.506;2023-10-19T20:41:01;8.50;99.90
22319;DHT22;11327;52.334;9.506;2023-10-19T20:44:22;8.50;99.90
22319;DHT22;11327;52.334;9.506;2023-10-19T20:47:49;8.50;99.90
22319;DHT22;11327;52.334;9.506;2023-10-19T20:51:18;8.50;99.90
22319;DHT22;11327;52.334;9.506;2023-10-19T20:54:36;8.50;99.90
22319;DHT22;11327;52.334;9.506;2023-10-19T20:57:57;8.40;99.90
22319;DHT22;11327;52.334;9.506;2023-10-19T21:01:17;8.50;99.90
22319;DHT22;11327;52.334;9.506;2023-10-19T21:04:40;8.50;99.90
22319;DHT22;11327;52.334;9.506;2023-10-19T21:08:01;8.50;99.90
22319;DHT22;11327;52.334;9.506;2023-10-19T21:11:21;8.50;99.90
22319;DHT22;11327;52.334;9.506;2023-10-19T21:14:42;8.40;99.90
22319;DHT22;11327;52.334;9.506;2023-10-19T21:18:03;8.40;99.90
22319;DHT22;11327;52.334;9.506;2023-10-19T21:21:25;8.40;99.90
22319;DHT22;11327;52.334;9.506;2023-10-19T21:24:46;8.50;99.90
22319;DHT22;11327;52.334;9.506;2023-10-19T21:28:06;8.50;99.90
22319;DHT22;11327;52.334;9.506;2023-10-19T21:31:27;8.40;99.90
22319;DHT22;11327;52.334;9.506;2023-10-19T21:34:48;8.50;99.90
22319;DHT22;11327;52.334;9.506;2023-10-19T21:38:12;8.50;99.90
22319;DHT22;11327;52.334;9.506;2023-10-19T21:41:34;8.40;99.90